05TA weather

Brandes Air Field
Sealy, Texas, United States

Public forecast

Using degrees Fahrenheit for public forecast. Weather courtesy of forecast.io.

METAR (pilot weather report)

Closest report is Eagle Lake Airport, 12.9 nm (23.8 km) SSW. Retrieved 2019/09/22 06:35 UTC (12 minutes ago):

KELA 220635Z AUTO 10003KT 10SM CLR 25/24 A3002 RMK AO2 T02490242

TAF (pilot weather forecast)

Closest forecast is Sugar Land Regional Airport, 33.7 nm (62.3 km) ESE. Retrieved 2019/09/22 06:22 UTC (25 minutes ago):

TAF KSGR 220520Z 2206/2306 13008KT P6SM SCT025 SCT250 TEMPO 2214/2216 BKN025 FM221600 14010KT P6SM VCSH SCT025 BKN035 FM222100 15010KT P6SM SCT040 BKN250 FM230200 14005KT P6SM FEW025 SCT250